sensor_id;sensor_type;location;lat;lon;timestamp;P1;durP1;ratioP1;P2;durP2;ratioP2
17361;SDS011;8798;51.938;4.348;2022-07-29T00:02:05;0.50;;;0.50;;
17361;SDS011;8798;51.938;4.348;2022-07-29T00:04:33;1.30;;;0.70;;
17361;SDS011;8798;51.938;4.348;2022-07-29T00:07:02;3.47;;;0.80;;
17361;SDS011;8798;51.938;4.348;2022-07-29T00:09:30;3.80;;;0.77;;
17361;SDS011;8798;51.938;4.348;2022-07-29T00:11:58;1.53;;;0.70;;
17361;SDS011;8798;51.938;4.348;2022-07-29T00:14:28;1.40;;;0.70;;
17361;SDS011;8798;51.938;4.348;2022-07-29T00:16:56;1.70;;;0.70;;
17361;SDS011;8798;51.938;4.348;2022-07-29T00:19:24;1.87;;;0.70;;
17361;SDS011;8798;51.938;4.348;2022-07-29T00:21:52;1.97;;;0.70;;
17361;SDS011;8798;51.938;4.348;2022-07-29T00:24:19;0.60;;;0.60;;
17361;SDS011;8798;51.938;4.348;2022-07-29T00:26:48;1.97;;;0.87;;
17361;SDS011;8798;51.938;4.348;2022-07-29T00:29:19;2.83;;;0.60;;
17361;SDS011;8798;51.938;4.348;2022-07-29T00:32:04;0.93;;;0.63;;
17361;SDS011;8798;51.938;4.348;2022-07-29T00:34:32;2.57;;;0.53;;
17361;SDS011;8798;51.938;4.348;2022-07-29T00:37:17;1.03;;;0.60;;
17361;SDS011;8798;51.938;4.348;2022-07-29T00:39:45;3.07;;;0.80;;
17361;SDS011;8798;51.938;4.348;2022-07-29T00:42:13;1.50;;;0.70;;
17361;SDS011;8798;51.938;4.348;2022-07-29T00:44:41;0.73;;;0.60;;
17361;SDS011;8798;51.938;4.348;2022-07-29T00:47:11;1.50;;;0.70;;
17361;SDS011;8798;51.938;4.348;2022-07-29T00:49:40;1.10;;;0.63;;
17361;SDS011;8798;51.938;4.348;2022-07-29T00:52:09;1.53;;;0.93;;
17361;SDS011;8798;51.938;4.348;2022-07-29T00:54:41;1.20;;;0.60;;
17361;SDS011;8798;51.938;4.348;2022-07-29T00:57:10;1.87;;;0.63;;
17361;SDS011;8798;51.938;4.348;2022-07-29T00:59:39;0.93;;;0.60;;
17361;SDS011;8798;51.938;4.348;2022-07-29T01:02:06;1.33;;;0.60;;
17361;SDS011;8798;51.938;4.348;2022-07-29T01:04:36;1.40;;;0.67;;
17361;SDS011;8798;51.938;4.348;2022-07-29T01:07:03;1.23;;;0.80;;
17361;SDS011;8798;51.938;4.348;2022-07-29T01:09:32;0.70;;;0.60;;
17361;SDS011;8798;51.938;4.348;2022-07-29T01:12:12;0.70;;;0.50;;
17361;SDS011;8798;51.938;4.348;2022-07-29T01:14:42;8.43;;;0.90;;
17361;SDS011;8798;51.938;4.348;2022-07-29T01:17:11;1.60;;;0.70;;
17361;SDS011;8798;51.938;4.348;2022-07-29T01:19:47;1.73;;;0.70;;
17361;SDS011;8798;51.938;4.348;2022-07-29T01:22:31;1.37;;;0.63;;
17361;SDS011;8798;51.938;4.348;2022-07-29T01:25:20;3.03;;;1.10;;
17361;SDS011;8798;51.938;4.348;2022-07-29T01:28:08;0.80;;;0.60;;
17361;SDS011;8798;51.938;4.348;2022-07-29T01:30:49;1.30;;;0.60;;
17361;SDS011;8798;51.938;4.348;2022-07-29T01:33:18;0.90;;;0.47;;
17361;SDS011;8798;51.938;4.348;2022-07-29T01:36:05;2.03;;;0.80;;
17361;SDS011;8798;51.938;4.348;2022-07-29T01:38:38;2.13;;;0.80;;
17361;SDS011;8798;51.938;4.348;2022-07-29T01:41:08;1.53;;;0.70;;
17361;SDS011;8798;51.938;4.348;2022-07-29T01:43:41;1.37;;;1.00;;
17361;SDS011;8798;51.938;4.348;2022-07-29T01:46:13;1.57;;;0.80;;
17361;SDS011;8798;51.938;4.348;2022-07-29T01:48:46;1.03;;;0.57;;
17361;SDS011;8798;51.938;4.348;2022-07-29T01:51:16;3.50;;;1.00;;
17361;SDS011;8798;51.938;4.348;2022-07-29T01:53:50;1.50;;;0.70;;
17361;SDS011;8798;51.938;4.348;2022-07-29T01:56:22;2.03;;;0.80;;
17361;SDS011;8798;51.938;4.348;2022-07-29T01:58:52;1.03;;;0.50;;
17361;SDS011;8798;51.938;4.348;2022-07-29T02:01:24;1.10;;;0.57;;
17361;SDS011;8798;51.938;4.348;2022-07-29T02:03:54;2.87;;;0.60;;
17361;SDS011;8798;51.938;4.348;2022-07-29T02:06:25;1.70;;;0.70;;
17361;SDS011;8798;51.938;4.348;2022-07-29T02:08:55;1.73;;;0.63;;
17361;SDS011;8798;51.938;4.348;2022-07-29T02:11:25;1.13;;;0.70;;
17361;SDS011;8798;51.938;4.348;2022-07-29T02:13:54;1.83;;;0.93;;
17361;SDS011;8798;51.938;4.348;2022-07-29T02:16:26;1.63;;;0.80;;
17361;SDS011;8798;51.938;4.348;2022-07-29T02:18:57;2.70;;;0.70;;
17361;SDS011;8798;51.938;4.348;2022-07-29T02:21:29;1.93;;;0.73;;
17361;SDS011;8798;51.938;4.348;2022-07-29T02:23:59;1.33;;;0.70;;
17361;SDS011;8798;51.938;4.348;2022-07-29T02:26:29;2.67;;;0.77;;
17361;SDS011;8798;51.938;4.348;2022-07-29T02:28:59;1.00;;;0.70;;
17361;SDS011;8798;51.938;4.348;2022-07-29T02:31:32;1.00;;;0.70;;
17361;SDS011;8798;51.938;4.348;2022-07-29T02:34:02;1.90;;;0.90;;
17361;SDS011;8798;51.938;4.348;2022-07-29T02:36:32;1.33;;;0.60;;
17361;SDS011;8798;51.938;4.348;2022-07-29T02:39:01;1.03;;;0.70;;
17361;SDS011;8798;51.938;4.348;2022-07-29T02:41:31;1.57;;;0.80;;
17361;SDS011;8798;51.938;4.348;2022-07-29T02:44:05;0.73;;;0.70;;
17361;SDS011;8798;51.938;4.348;2022-07-29T02:46:43;1.60;;;0.80;;
17361;SDS011;8798;51.938;4.348;2022-07-29T02:49:16;2.97;;;0.73;;
17361;SDS011;8798;51.938;4.348;2022-07-29T02:51:51;1.63;;;0.90;;
17361;SDS011;8798;51.938;4.348;2022-07-29T02:54:24;2.33;;;0.80;;
17361;SDS011;8798;51.938;4.348;2022-07-29T02:56:57;1.57;;;0.70;;
17361;SDS011;8798;51.938;4.348;2022-07-29T02:59:27;2.00;;;0.80;;
17361;SDS011;8798;51.938;4.348;2022-07-29T03:02:03;1.40;;;0.70;;
17361;SDS011;8798;51.938;4.348;2022-07-29T03:04:33;5.97;;;0.87;;
17361;SDS011;8798;51.938;4.348;2022-07-29T03:07:02;2.17;;;0.80;;
17361;SDS011;8798;51.938;4.348;2022-07-29T03:09:32;2.37;;;0.90;;
17361;SDS011;8798;51.938;4.348;2022-07-29T03:12:00;0.90;;;0.80;;
17361;SDS011;8798;51.938;4.348;2022-07-29T03:14:29;1.13;;;0.70;;
17361;SDS011;8798;51.938;4.348;2022-07-29T03:16:58;1.20;;;0.70;;
17361;SDS011;8798;51.938;4.348;2022-07-29T03:19:28;1.40;;;0.90;;
17361;SDS011;8798;51.938;4.348;2022-07-29T03:21:57;1.73;;;0.80;;
17361;SDS011;8798;51.938;4.348;2022-07-29T03:24:31;1.43;;;0.80;;
17361;SDS011;8798;51.938;4.348;2022-07-29T03:27:00;1.17;;;0.60;;
17361;SDS011;8798;51.938;4.348;2022-07-29T03:29:29;1.97;;;0.60;;
17361;SDS011;8798;51.938;4.348;2022-07-29T03:31:59;2.70;;;0.80;;
17361;SDS011;8798;51.938;4.348;2022-07-29T03:34:34;2.13;;;0.83;;
17361;SDS011;8798;51.938;4.348;2022-07-29T03:37:02;2.20;;;0.70;;
17361;SDS011;8798;51.938;4.348;2022-07-29T03:39:31;4.10;;;0.93;;
17361;SDS011;8798;51.938;4.348;2022-07-29T03:42:02;3.53;;;0.80;;
17361;SDS011;8798;51.938;4.348;2022-07-29T03:44:32;1.00;;;0.90;;
17361;SDS011;8798;51.938;4.348;2022-07-29T03:47:01;1.77;;;1.07;;
17361;SDS011;8798;51.938;4.348;2022-07-29T03:49:33;1.97;;;0.83;;
17361;SDS011;8798;51.938;4.348;2022-07-29T03:52:04;0.80;;;0.70;;
17361;SDS011;8798;51.938;4.348;2022-07-29T03:54:33;1.83;;;0.70;;
17361;SDS011;8798;51.938;4.348;2022-07-29T03:57:03;0.83;;;0.83;;
17361;SDS011;8798;51.938;4.348;2022-07-29T03:59:33;2.00;;;1.00;;
17361;SDS011;8798;51.938;4.348;2022-07-29T04:02:01;1.47;;;0.90;;
17361;SDS011;8798;51.938;4.348;2022-07-29T04:04:31;1.93;;;0.80;;
17361;SDS011;8798;51.938;4.348;2022-07-29T04:07:02;1.87;;;0.90;;
17361;SDS011;8798;51.938;4.348;2022-07-29T04:09:31;0.93;;;0.67;;
17361;SDS011;8798;51.938;4.348;2022-07-29T04:11:58;1.93;;;1.00;;
17361;SDS011;8798;51.938;4.348;2022-07-29T04:14:29;2.00;;;0.90;;
17361;SDS011;8798;51.938;4.348;2022-07-29T04:16:57;2.77;;;1.07;;
17361;SDS011;8798;51.938;4.348;2022-07-29T04:19:25;2.00;;;1.23;;
17361;SDS011;8798;51.938;4.348;2022-07-29T04:21:54;2.63;;;1.10;;
17361;SDS011;8798;51.938;4.348;2022-07-29T04:24:22;3.40;;;1.40;;
17361;SDS011;8798;51.938;4.348;2022-07-29T04:26:51;1.87;;;1.10;;
17361;SDS011;8798;51.938;4.348;2022-07-29T04:29:19;2.10;;;1.23;;
17361;SDS011;8798;51.938;4.348;2022-07-29T04:31:47;2.40;;;1.03;;
17361;SDS011;8798;51.938;4.348;2022-07-29T04:34:14;2.20;;;1.20;;
17361;SDS011;8798;51.938;4.348;2022-07-29T04:36:43;2.97;;;1.20;;
17361;SDS011;8798;51.938;4.348;2022-07-29T04:39:12;2.57;;;0.90;;
17361;SDS011;8798;51.938;4.348;2022-07-29T04:41:47;1.60;;;1.10;;
17361;SDS011;8798;51.938;4.348;2022-07-29T04:44:17;1.83;;;1.00;;
17361;SDS011;8798;51.938;4.348;2022-07-29T04:46:45;1.27;;;1.10;;
17361;SDS011;8798;51.938;4.348;2022-07-29T04:49:13;1.80;;;1.07;;
17361;SDS011;8798;51.938;4.348;2022-07-29T04:51:41;2.33;;;0.90;;
17361;SDS011;8798;51.938;4.348;2022-07-29T04:54:09;1.87;;;1.23;;
17361;SDS011;8798;51.938;4.348;2022-07-29T04:56:38;1.33;;;1.10;;
17361;SDS011;8798;51.938;4.348;2022-07-29T04:59:05;2.53;;;1.00;;
17361;SDS011;8798;51.938;4.348;2022-07-29T05:01:33;2.23;;;1.10;;
17361;SDS011;8798;51.938;4.348;2022-07-29T05:04:01;4.47;;;1.00;;
17361;SDS011;8798;51.938;4.348;2022-07-29T05:06:29;6.80;;;1.50;;
17361;SDS011;8798;51.938;4.348;2022-07-29T05:08:57;7.83;;;1.30;;
17361;SDS011;8798;51.938;4.348;2022-07-29T05:11:24;4.13;;;1.37;;
17361;SDS011;8798;51.938;4.348;2022-07-29T05:13:57;6.20;;;1.20;;
17361;SDS011;8798;51.938;4.348;2022-07-29T05:16:25;4.50;;;1.20;;
17361;SDS011;8798;51.938;4.348;2022-07-29T05:18:53;4.90;;;1.27;;
17361;SDS011;8798;51.938;4.348;2022-07-29T05:21:21;3.10;;;1.20;;
17361;SDS011;8798;51.938;4.348;2022-07-29T05:23:48;10.67;;;1.70;;
17361;SDS011;8798;51.938;4.348;2022-07-29T05:26:16;2.33;;;1.30;;
17361;SDS011;8798;51.938;4.348;2022-07-29T05:28:44;1.60;;;1.00;;
17361;SDS011;8798;51.938;4.348;2022-07-29T05:31:13;3.30;;;1.27;;
17361;SDS011;8798;51.938;4.348;2022-07-29T05:33:42;3.50;;;1.37;;
17361;SDS011;8798;51.938;4.348;2022-07-29T05:36:10;10.33;;;1.40;;
17361;SDS011;8798;51.938;4.348;2022-07-29T05:38:37;3.90;;;1.53;;
17361;SDS011;8798;51.938;4.348;2022-07-29T05:41:05;2.93;;;1.07;;
17361;SDS011;8798;51.938;4.348;2022-07-29T05:43:33;3.33;;;1.30;;
17361;SDS011;8798;51.938;4.348;2022-07-29T05:46:01;2.40;;;1.10;;
17361;SDS011;8798;51.938;4.348;2022-07-29T05:48:30;8.63;;;1.27;;
17361;SDS011;8798;51.938;4.348;2022-07-29T05:50:58;2.63;;;1.20;;
17361;SDS011;8798;51.938;4.348;2022-07-29T05:53:26;4.13;;;1.13;;
17361;SDS011;8798;51.938;4.348;2022-07-29T05:55:54;2.53;;;1.30;;
17361;SDS011;8798;51.938;4.348;2022-07-29T05:58:22;3.90;;;0.90;;
17361;SDS011;8798;51.938;4.348;2022-07-29T06:00:49;3.90;;;1.17;;
17361;SDS011;8798;51.938;4.348;2022-07-29T06:03:17;1.17;;;1.00;;
17361;SDS011;8798;51.938;4.348;2022-07-29T06:05:46;33.33;;;1.70;;
17361;SDS011;8798;51.938;4.348;2022-07-29T06:08:14;6.90;;;1.43;;
17361;SDS011;8798;51.938;4.348;2022-07-29T06:10:42;1.37;;;0.90;;
17361;SDS011;8798;51.938;4.348;2022-07-29T06:13:10;12.13;;;1.30;;
17361;SDS011;8798;51.938;4.348;2022-07-29T06:15:38;2.43;;;1.00;;
17361;SDS011;8798;51.938;4.348;2022-07-29T06:18:06;1.83;;;0.90;;
17361;SDS011;8798;51.938;4.348;2022-07-29T06:20:36;1.00;;;0.70;;
17361;SDS011;8798;51.938;4.348;2022-07-29T06:23:05;1.57;;;0.80;;
17361;SDS011;8798;51.938;4.348;2022-07-29T06:25:33;4.17;;;1.33;;
17361;SDS011;8798;51.938;4.348;2022-07-29T06:28:03;1.17;;;0.90;;
17361;SDS011;8798;51.938;4.348;2022-07-29T06:30:31;1.73;;;0.80;;
17361;SDS011;8798;51.938;4.348;2022-07-29T06:32:58;0.93;;;0.80;;
17361;SDS011;8798;51.938;4.348;2022-07-29T06:35:33;1.53;;;0.90;;
17361;SDS011;8798;51.938;4.348;2022-07-29T06:38:08;1.27;;;0.80;;
17361;SDS011;8798;51.938;4.348;2022-07-29T06:40:57;1.00;;;0.80;;
17361;SDS011;8798;51.938;4.348;2022-07-29T06:43:30;0.80;;;0.80;;
17361;SDS011;8798;51.938;4.348;2022-07-29T06:46:00;0.87;;;0.77;;
17361;SDS011;8798;51.938;4.348;2022-07-29T06:48:29;1.80;;;0.90;;
17361;SDS011;8798;51.938;4.348;2022-07-29T06:50:57;0.93;;;0.87;;
17361;SDS011;8798;51.938;4.348;2022-07-29T06:53:26;2.17;;;1.00;;
17361;SDS011;8798;51.938;4.348;2022-07-29T06:55:55;1.97;;;1.00;;
17361;SDS011;8798;51.938;4.348;2022-07-29T06:58:24;1.40;;;1.03;;
17361;SDS011;8798;51.938;4.348;2022-07-29T07:00:53;4.47;;;1.20;;
17361;SDS011;8798;51.938;4.348;2022-07-29T07:03:21;1.50;;;1.20;;
17361;SDS011;8798;51.938;4.348;2022-07-29T07:05:50;2.27;;;0.87;;
17361;SDS011;8798;51.938;4.348;2022-07-29T07:08:19;1.53;;;1.10;;
17361;SDS011;8798;51.938;4.348;2022-07-29T07:10:49;0.83;;;0.80;;
17361;SDS011;8798;51.938;4.348;2022-07-29T07:13:17;1.83;;;0.87;;
17361;SDS011;8798;51.938;4.348;2022-07-29T07:15:45;2.90;;;1.27;;
17361;SDS011;8798;51.938;4.348;2022-07-29T07:18:14;1.67;;;0.87;;
17361;SDS011;8798;51.938;4.348;2022-07-29T07:20:43;1.40;;;0.80;;
17361;SDS011;8798;51.938;4.348;2022-07-29T07:23:11;1.53;;;1.10;;
17361;SDS011;8798;51.938;4.348;2022-07-29T07:25:38;0.90;;;0.83;;
17361;SDS011;8798;51.938;4.348;2022-07-29T07:28:07;1.60;;;0.90;;
17361;SDS011;8798;51.938;4.348;2022-07-29T07:30:35;1.70;;;0.97;;
17361;SDS011;8798;51.938;4.348;2022-07-29T07:33:03;2.17;;;0.90;;
17361;SDS011;8798;51.938;4.348;2022-07-29T07:35:31;1.53;;;1.27;;
17361;SDS011;8798;51.938;4.348;2022-07-29T07:37:59;1.87;;;1.00;;
17361;SDS011;8798;51.938;4.348;2022-07-29T07:40:27;1.10;;;0.80;;
17361;SDS011;8798;51.938;4.348;2022-07-29T07:42:55;1.50;;;0.97;;
17361;SDS011;8798;51.938;4.348;2022-07-29T07:45:25;1.57;;;0.90;;
17361;SDS011;8798;51.938;4.348;2022-07-29T07:47:54;1.03;;;0.87;;
17361;SDS011;8798;51.938;4.348;2022-07-29T07:50:22;1.57;;;0.80;;
17361;SDS011;8798;51.938;4.348;2022-07-29T07:52:50;1.80;;;0.90;;
17361;SDS011;8798;51.938;4.348;2022-07-29T07:55:19;3.83;;;1.13;;
17361;SDS011;8798;51.938;4.348;2022-07-29T07:57:47;3.37;;;1.00;;
17361;SDS011;8798;51.938;4.348;2022-07-29T08:00:16;1.67;;;1.00;;
17361;SDS011;8798;51.938;4.348;2022-07-29T08:02:49;2.37;;;1.00;;
17361;SDS011;8798;51.938;4.348;2022-07-29T08:05:17;1.43;;;0.83;;
17361;SDS011;8798;51.938;4.348;2022-07-29T08:07:46;2.87;;;0.97;;
17361;SDS011;8798;51.938;4.348;2022-07-29T08:10:14;1.23;;;1.00;;
17361;SDS011;8798;51.938;4.348;2022-07-29T08:13:03;2.40;;;1.00;;
17361;SDS011;8798;51.938;4.348;2022-07-29T08:15:31;1.57;;;0.90;;
17361;SDS011;8798;51.938;4.348;2022-07-29T08:18:00;1.20;;;0.90;;
17361;SDS011;8798;51.938;4.348;2022-07-29T08:20:34;1.67;;;1.00;;
17361;SDS011;8798;51.938;4.348;2022-07-29T08:23:02;1.33;;;0.87;;
17361;SDS011;8798;51.938;4.348;2022-07-29T08:25:32;3.03;;;1.00;;
17361;SDS011;8798;51.938;4.348;2022-07-29T08:28:03;1.53;;;1.10;;
17361;SDS011;8798;51.938;4.348;2022-07-29T08:30:32;1.97;;;1.13;;
17361;SDS011;8798;51.938;4.348;2022-07-29T08:33:01;2.23;;;1.10;;
17361;SDS011;8798;51.938;4.348;2022-07-29T08:35:29;1.20;;;1.03;;
17361;SDS011;8798;51.938;4.348;2022-07-29T08:38:01;2.60;;;1.43;;
17361;SDS011;8798;51.938;4.348;2022-07-29T08:40:29;1.00;;;0.90;;
17361;SDS011;8798;51.938;4.348;2022-07-29T08:42:58;1.20;;;1.07;;
17361;SDS011;8798;51.938;4.348;2022-07-29T08:45:27;3.40;;;1.60;;
17361;SDS011;8798;51.938;4.348;2022-07-29T08:47:56;2.07;;;1.27;;
17361;SDS011;8798;51.938;4.348;2022-07-29T08:50:25;0.83;;;0.77;;
17361;SDS011;8798;51.938;4.348;2022-07-29T08:52:53;1.97;;;1.20;;
17361;SDS011;8798;51.938;4.348;2022-07-29T08:55:25;1.80;;;1.20;;
17361;SDS011;8798;51.938;4.348;2022-07-29T08:57:53;2.90;;;1.30;;
17361;SDS011;8798;51.938;4.348;2022-07-29T09:00:22;2.97;;;1.30;;
17361;SDS011;8798;51.938;4.348;2022-07-29T09:02:56;0.90;;;0.87;;
17361;SDS011;8798;51.938;4.348;2022-07-29T09:05:27;2.90;;;1.17;;
17361;SDS011;8798;51.938;4.348;2022-07-29T09:07:55;2.93;;;1.23;;
17361;SDS011;8798;51.938;4.348;2022-07-29T09:10:23;1.83;;;1.10;;
17361;SDS011;8798;51.938;4.348;2022-07-29T09:12:51;1.60;;;1.13;;
17361;SDS011;8798;51.938;4.348;2022-07-29T09:15:19;1.30;;;1.20;;
17361;SDS011;8798;51.938;4.348;2022-07-29T09:17:48;2.37;;;1.30;;
17361;SDS011;8798;51.938;4.348;2022-07-29T09:20:17;2.93;;;1.43;;
17361;SDS011;8798;51.938;4.348;2022-07-29T09:22:50;6.03;;;1.17;;
17361;SDS011;8798;51.938;4.348;2022-07-29T09:25:32;1.60;;;1.20;;
17361;SDS011;8798;51.938;4.348;2022-07-29T09:28:05;2.67;;;1.27;;
17361;SDS011;8798;51.938;4.348;2022-07-29T09:30:34;2.43;;;1.07;;
17361;SDS011;8798;51.938;4.348;2022-07-29T09:33:02;1.77;;;1.10;;
17361;SDS011;8798;51.938;4.348;2022-07-29T09:35:30;2.30;;;1.43;;
17361;SDS011;8798;51.938;4.348;2022-07-29T09:38:02;3.90;;;1.40;;
17361;SDS011;8798;51.938;4.348;2022-07-29T09:40:38;1.27;;;1.10;;
17361;SDS011;8798;51.938;4.348;2022-07-29T09:43:09;4.93;;;1.30;;
17361;SDS011;8798;51.938;4.348;2022-07-29T09:45:38;1.90;;;0.90;;
17361;SDS011;8798;51.938;4.348;2022-07-29T09:48:13;2.97;;;1.20;;
17361;SDS011;8798;51.938;4.348;2022-07-29T09:50:43;1.90;;;1.23;;
17361;SDS011;8798;51.938;4.348;2022-07-29T09:53:17;1.97;;;1.00;;
17361;SDS011;8798;51.938;4.348;2022-07-29T09:55:58;3.57;;;1.20;;
17361;SDS011;8798;51.938;4.348;2022-07-29T09:58:26;2.47;;;1.03;;
17361;SDS011;8798;51.938;4.348;2022-07-29T10:00:56;2.80;;;1.00;;
17361;SDS011;8798;51.938;4.348;2022-07-29T10:03:24;1.60;;;1.00;;
17361;SDS011;8798;51.938;4.348;2022-07-29T10:06:05;1.50;;;1.00;;
17361;SDS011;8798;51.938;4.348;2022-07-29T10:08:36;1.30;;;1.00;;
17361;SDS011;8798;51.938;4.348;2022-07-29T10:11:11;2.50;;;1.20;;
17361;SDS011;8798;51.938;4.348;2022-07-29T10:13:40;1.37;;;1.00;;
17361;SDS011;8798;51.938;4.348;2022-07-29T10:16:08;1.10;;;0.70;;
17361;SDS011;8798;51.938;4.348;2022-07-29T10:18:39;2.43;;;1.20;;
17361;SDS011;8798;51.938;4.348;2022-07-29T10:21:07;2.20;;;1.13;;
17361;SDS011;8798;51.938;4.348;2022-07-29T10:23:48;2.17;;;1.17;;
17361;SDS011;8798;51.938;4.348;2022-07-29T10:26:17;1.37;;;1.17;;
17361;SDS011;8798;51.938;4.348;2022-07-29T10:28:45;1.33;;;0.97;;
17361;SDS011;8798;51.938;4.348;2022-07-29T10:31:15;1.90;;;1.23;;
17361;SDS011;8798;51.938;4.348;2022-07-29T10:33:51;2.93;;;1.20;;
17361;SDS011;8798;51.938;4.348;2022-07-29T10:36:32;1.93;;;1.07;;
17361;SDS011;8798;51.938;4.348;2022-07-29T10:39:16;1.53;;;1.17;;
17361;SDS011;8798;51.938;4.348;2022-07-29T10:42:14;2.90;;;1.58;;
17361;SDS011;8798;51.938;4.348;2022-07-29T10:45:00;1.55;;;1.10;;
17361;SDS011;8798;51.938;4.348;2022-07-29T10:47:29;4.13;;;1.30;;
17361;SDS011;8798;51.938;4.348;2022-07-29T10:50:01;2.27;;;1.23;;
17361;SDS011;8798;51.938;4.348;2022-07-29T10:55:31;2.50;;;1.20;;
17361;SDS011;8798;51.938;4.348;2022-07-29T10:58:21;1.87;;;1.20;;
17361;SDS011;8798;51.938;4.348;2022-07-29T11:00:50;2.97;;;1.10;;
17361;SDS011;8798;51.938;4.348;2022-07-29T11:06:16;1.63;;;1.00;;
17361;SDS011;8798;51.938;4.348;2022-07-29T11:11:46;1.42;;;1.08;;
17361;SDS011;8798;51.938;4.348;2022-07-29T11:14:17;1.95;;;1.15;;
17361;SDS011;8798;51.938;4.348;2022-07-29T11:16:58;2.72;;;1.65;;
17361;SDS011;8798;51.938;4.348;2022-07-29T11:19:32;4.82;;;1.38;;
17361;SDS011;8798;51.938;4.348;2022-07-29T11:22:07;2.05;;;1.10;;
17361;SDS011;8798;51.938;4.348;2022-07-29T11:24:36;2.35;;;1.50;;
17361;SDS011;8798;51.938;4.348;2022-07-29T11:27:19;2.58;;;1.38;;
17361;SDS011;8798;51.938;4.348;2022-07-29T11:29:50;2.05;;;1.33;;
17361;SDS011;8798;51.938;4.348;2022-07-29T11:32:19;4.53;;;1.48;;
17361;SDS011;8798;51.938;4.348;2022-07-29T11:34:49;2.45;;;1.50;;
17361;SDS011;8798;51.938;4.348;2022-07-29T11:37:43;1.88;;;1.10;;
17361;SDS011;8798;51.938;4.348;2022-07-29T11:40:22;2.38;;;1.20;;
17361;SDS011;8798;51.938;4.348;2022-07-29T11:42:52;2.17;;;1.35;;
17361;SDS011;8798;51.938;4.348;2022-07-29T11:45:21;4.38;;;1.17;;
17361;SDS011;8798;51.938;4.348;2022-07-29T11:48:14;3.47;;;1.17;;
17361;SDS011;8798;51.938;4.348;2022-07-29T11:50:55;2.55;;;1.35;;
17361;SDS011;8798;51.938;4.348;2022-07-29T11:53:24;2.53;;;1.48;;
17361;SDS011;8798;51.938;4.348;2022-07-29T11:55:57;2.70;;;1.40;;
17361;SDS011;8798;51.938;4.348;2022-07-29T11:58:48;2.25;;;1.10;;
17361;SDS011;8798;51.938;4.348;2022-07-29T12:01:16;2.03;;;1.15;;
17361;SDS011;8798;51.938;4.348;2022-07-29T12:03:44;3.83;;;1.52;;
17361;SDS011;8798;51.938;4.348;2022-07-29T12:06:13;1.52;;;1.08;;
17361;SDS011;8798;51.938;4.348;2022-07-29T12:08:43;1.33;;;1.10;;
17361;SDS011;8798;51.938;4.348;2022-07-29T12:11:16;1.30;;;1.10;;
17361;SDS011;8798;51.938;4.348;2022-07-29T12:13:49;1.20;;;1.10;;
17361;SDS011;8798;51.938;4.348;2022-07-29T12:16:17;2.47;;;1.10;;
17361;SDS011;8798;51.938;4.348;2022-07-29T12:18:55;1.27;;;0.80;;
17361;SDS011;8798;51.938;4.348;2022-07-29T12:21:24;1.20;;;0.80;;
17361;SDS011;8798;51.938;4.348;2022-07-29T12:23:54;1.40;;;1.08;;
17361;SDS011;8798;51.938;4.348;2022-07-29T12:26:34;2.30;;;1.20;;
17361;SDS011;8798;51.938;4.348;2022-07-29T12:29:03;2.90;;;1.33;;
17361;SDS011;8798;51.938;4.348;2022-07-29T12:31:36;4.50;;;1.58;;
17361;SDS011;8798;51.938;4.348;2022-07-29T12:34:09;3.60;;;1.30;;
17361;SDS011;8798;51.938;4.348;2022-07-29T12:36:37;2.15;;;1.10;;
17361;SDS011;8798;51.938;4.348;2022-07-29T12:39:05;2.08;;;1.38;;
17361;SDS011;8798;51.938;4.348;2022-07-29T12:41:35;3.42;;;1.30;;
17361;SDS011;8798;51.938;4.348;2022-07-29T12:44:04;1.60;;;1.25;;
17361;SDS011;8798;51.938;4.348;2022-07-29T12:46:32;2.67;;;1.00;;
17361;SDS011;8798;51.938;4.348;2022-07-29T12:49:00;3.17;;;1.60;;
17361;SDS011;8798;51.938;4.348;2022-07-29T12:51:29;2.80;;;1.77;;
17361;SDS011;8798;51.938;4.348;2022-07-29T12:54:03;1.52;;;1.25;;
17361;SDS011;8798;51.938;4.348;2022-07-29T12:56:33;2.03;;;1.15;;
17361;SDS011;8798;51.938;4.348;2022-07-29T12:59:17;3.05;;;1.10;;
17361;SDS011;8798;51.938;4.348;2022-07-29T13:01:48;2.83;;;1.38;;
17361;SDS011;8798;51.938;4.348;2022-07-29T13:04:24;1.67;;;1.20;;
17361;SDS011;8798;51.938;4.348;2022-07-29T13:07:00;1.90;;;1.33;;
17361;SDS011;8798;51.938;4.348;2022-07-29T13:09:39;1.77;;;1.08;;
17361;SDS011;8798;51.938;4.348;2022-07-29T13:12:09;1.85;;;1.20;;
17361;SDS011;8798;51.938;4.348;2022-07-29T13:14:40;3.50;;;1.27;;
17361;SDS011;8798;51.938;4.348;2022-07-29T13:17:09;2.35;;;1.38;;
17361;SDS011;8798;51.938;4.348;2022-07-29T13:19:38;3.28;;;1.10;;
17361;SDS011;8798;51.938;4.348;2022-07-29T13:22:08;3.00;;;1.27;;
17361;SDS011;8798;51.938;4.348;2022-07-29T13:24:47;2.17;;;1.23;;
17361;SDS011;8798;51.938;4.348;2022-07-29T13:27:16;3.50;;;1.23;;
17361;SDS011;8798;51.938;4.348;2022-07-29T13:29:46;2.35;;;0.90;;
17361;SDS011;8798;51.938;4.348;2022-07-29T13:32:13;1.45;;;0.90;;
17361;SDS011;8798;51.938;4.348;2022-07-29T13:34:41;2.15;;;1.20;;
17361;SDS011;8798;51.938;4.348;2022-07-29T13:37:09;4.47;;;1.25;;
17361;SDS011;8798;51.938;4.348;2022-07-29T13:39:37;1.65;;;1.20;;
17361;SDS011;8798;51.938;4.348;2022-07-29T13:42:06;4.05;;;1.30;;
17361;SDS011;8798;51.938;4.348;2022-07-29T13:44:36;1.48;;;0.85;;
17361;SDS011;8798;51.938;4.348;2022-07-29T13:47:05;1.83;;;1.30;;
17361;SDS011;8798;51.938;4.348;2022-07-29T13:49:34;1.17;;;0.95;;
17361;SDS011;8798;51.938;4.348;2022-07-29T13:52:02;2.20;;;1.10;;
17361;SDS011;8798;51.938;4.348;2022-07-29T13:54:33;1.58;;;1.15;;
17361;SDS011;8798;51.938;4.348;2022-07-29T13:57:08;1.95;;;1.10;;
17361;SDS011;8798;51.938;4.348;2022-07-29T13:59:37;1.92;;;1.10;;
17361;SDS011;8798;51.938;4.348;2022-07-29T14:02:06;1.20;;;1.10;;
17361;SDS011;8798;51.938;4.348;2022-07-29T14:04:34;1.60;;;1.00;;
17361;SDS011;8798;51.938;4.348;2022-07-29T14:07:05;4.28;;;1.30;;
17361;SDS011;8798;51.938;4.348;2022-07-29T14:09:33;3.15;;;1.10;;
17361;SDS011;8798;51.938;4.348;2022-07-29T14:12:07;2.03;;;1.10;;
17361;SDS011;8798;51.938;4.348;2022-07-29T14:14:35;1.77;;;0.90;;
17361;SDS011;8798;51.938;4.348;2022-07-29T14:17:03;2.67;;;0.90;;
17361;SDS011;8798;51.938;4.348;2022-07-29T14:19:34;4.13;;;1.20;;
17361;SDS011;8798;51.938;4.348;2022-07-29T14:22:04;4.55;;;1.20;;
17361;SDS011;8798;51.938;4.348;2022-07-29T14:24:34;1.75;;;0.90;;
17361;SDS011;8798;51.938;4.348;2022-07-29T14:27:03;3.22;;;1.27;;
17361;SDS011;8798;51.938;4.348;2022-07-29T14:29:31;1.67;;;1.05;;
17361;SDS011;8798;51.938;4.348;2022-07-29T14:32:04;1.88;;;0.80;;
17361;SDS011;8798;51.938;4.348;2022-07-29T14:34:34;1.90;;;1.08;;
17361;SDS011;8798;51.938;4.348;2022-07-29T14:37:01;3.63;;;0.95;;
17361;SDS011;8798;51.938;4.348;2022-07-29T14:39:32;1.33;;;1.20;;
17361;SDS011;8798;51.938;4.348;2022-07-29T14:42:04;1.38;;;0.98;;
17361;SDS011;8798;51.938;4.348;2022-07-29T14:44:32;2.75;;;1.00;;
17361;SDS011;8798;51.938;4.348;2022-07-29T14:47:00;1.20;;;0.90;;
17361;SDS011;8798;51.938;4.348;2022-07-29T14:49:34;1.20;;;1.00;;
17361;SDS011;8798;51.938;4.348;2022-07-29T14:52:02;2.38;;;0.90;;
17361;SDS011;8798;51.938;4.348;2022-07-29T14:54:31;2.92;;;1.10;;
17361;SDS011;8798;51.938;4.348;2022-07-29T14:56:58;3.63;;;0.70;;
17361;SDS011;8798;51.938;4.348;2022-07-29T14:59:27;2.80;;;1.10;;
17361;SDS011;8798;51.938;4.348;2022-07-29T15:01:55;0.98;;;0.85;;
17361;SDS011;8798;51.938;4.348;2022-07-29T15:04:24;2.38;;;1.02;;
17361;SDS011;8798;51.938;4.348;2022-07-29T15:06:53;2.05;;;1.10;;
17361;SDS011;8798;51.938;4.348;2022-07-29T15:09:21;2.47;;;1.00;;
17361;SDS011;8798;51.938;4.348;2022-07-29T15:11:51;1.58;;;1.10;;
17361;SDS011;8798;51.938;4.348;2022-07-29T15:14:19;1.77;;;0.80;;
17361;SDS011;8798;51.938;4.348;2022-07-29T15:16:46;2.17;;;0.80;;
17361;SDS011;8798;51.938;4.348;2022-07-29T15:19:17;1.38;;;0.90;;
17361;SDS011;8798;51.938;4.348;2022-07-29T15:21:45;1.38;;;0.80;;
17361;SDS011;8798;51.938;4.348;2022-07-29T15:24:15;1.05;;;0.82;;
17361;SDS011;8798;51.938;4.348;2022-07-29T15:26:43;1.05;;;0.75;;
17361;SDS011;8798;51.938;4.348;2022-07-29T15:29:11;2.25;;;1.15;;
17361;SDS011;8798;51.938;4.348;2022-07-29T15:31:40;1.27;;;0.80;;